Aviation Digital Data Service (ADDS)

Output produced by METARs form (0737 UTC 18 November 2018)
found at http://www.aviationweather.gov/metar/data/
 
METAR text: RORS 180700Z 16009KT 9999 FEW010 BKN040 26/23 Q1014
Conditions at: RORS (SHIMOJI-SHIMA IS, JP) observed 0700 UTC 18 November 2018
Temperature: 26.0°C (79°F)
Dewpoint: 23.0°C (73°F) [RH = 84%]
Pressure (altimeter): 29.94 inches Hg (1014.0 mb)
Winds: from the SSE (160 degrees) at 10 MPH (9 knots; 4.6 m/s)
Visibility: 6 or more miles (10+ km)
Ceiling: 4000 feet AGL
Clouds: few clouds at 1000 feet AGL
broken clouds at 4000 feet AGL
Weather: no significant weather observed at this time